Time;durP1;ratioP1;P1;durP2;ratioP2;P2;SDS_P1;SDS_P2;PMS_P1;PMS_P2;Temp;Humidity;BMP_temperature;BMP_pressure;BME280_temperature;BME280_humidity;BME280_pressure;Samples;Min_cycle;Max_cycle;Signal;HPM_P1;HPM_P2
2023/12/21 00:00:12;;;;;;;2.63;1.37;;;;;;;4.14;100.00;152426.38;4995282;28;20555;-83
2023/12/21 00:02:39;;;;;;;1.97;1.20;;;;;;;4.16;100.00;152432.81;4995529;28;21079;-83
2023/12/21 00:05:06;;;;;;;2.30;1.43;;;;;;;4.14;100.00;152427.69;4996547;28;20529;-83
2023/12/21 00:07:33;;;;;;;2.00;1.10;;;;;;;4.15;100.00;152428.97;4996204;28;20467;-83
2023/12/21 00:09:59;;;;;;;1.20;0.90;;;;;;;4.16;100.00;152431.53;4994555;28;20442;-83
2023/12/21 00:12:27;;;;;;;2.33;1.00;;;;;;;4.18;100.00;152436.72;4991504;28;20452;-82
2023/12/21 00:14:54;;;;;;;2.30;1.20;;;;;;;4.15;100.00;152428.97;5009146;28;20464;-83
2023/12/21 00:17:20;;;;;;;2.20;1.00;;;;;;;4.18;100.00;152436.72;4981818;28;20464;-83
2023/12/21 00:19:47;;;;;;;1.50;1.20;;;;;;;4.19;100.00;152439.25;5007569;28;20483;-83
2023/12/21 00:22:13;;;;;;;1.20;0.90;;;;;;;4.19;100.00;152440.56;5002705;28;20504;-83
2023/12/21 00:24:40;;;;;;;2.23;1.33;;;;;;;4.21;100.00;152445.69;4981601;28;20511;-83
2023/12/21 00:27:07;;;;;;;1.37;1.07;;;;;;;4.22;100.00;152448.28;4997938;28;20501;-82
2023/12/21 00:29:34;;;;;;;1.20;0.77;;;;;;;4.23;100.00;152449.59;4975997;28;20449;-83
2023/12/21 00:32:01;;;;;;;1.70;1.07;;;;;;;4.23;100.00;152449.59;5007556;28;20452;-83
2023/12/21 00:34:27;;;;;;;5.23;1.13;;;;;;;4.19;100.00;152440.56;5013415;28;20457;-83
2023/12/21 00:36:54;;;;;;;1.47;0.87;;;;;;;4.19;100.00;152439.25;5006332;28;20489;-83
2023/12/21 00:39:21;;;;;;;1.50;1.03;;;;;;;4.22;100.00;152448.28;4979439;28;20550;-74
2023/12/21 00:41:47;;;;;;;1.53;0.83;;;;;;;4.20;100.00;152443.16;5009822;28;20466;-74
2023/12/21 00:44:14;;;;;;;1.30;0.90;;;;;;;4.20;100.00;152441.84;4983595;28;20549;-74
2023/12/21 00:46:41;;;;;;;1.10;0.73;;;;;;;4.21;100.00;152444.41;5012357;28;20531;-74
2023/12/21 00:49:08;;;;;;;1.40;0.90;;;;;;;4.23;100.00;152450.88;4997852;28;20456;-74
2023/12/21 00:51:43;;;;;;;2.50;1.00;;;;;;;4.22;100.00;152447.00;4995384;28;20448;-74
2023/12/21 00:54:10;;;;;;;2.80;0.70;;;;;;;4.25;100.00;152454.72;5001607;28;20981;-74
2023/12/21 00:56:37;;;;;;;1.60;0.90;;;;;;;4.26;100.00;152457.31;5012568;28;20854;-74
2023/12/21 00:59:04;;;;;;;1.00;0.63;;;;;;;4.23;100.00;152450.88;4992292;28;20955;-74
2023/12/21 01:01:31;;;;;;;1.07;0.60;;;;;;;4.22;100.00;152447.00;4982473;28;20543;-74
2023/12/21 01:03:58;;;;;;;1.33;0.73;;;;;;;4.22;100.00;152448.28;4988102;28;20519;-74
2023/12/21 01:06:25;;;;;;;1.33;0.80;;;;;;;4.23;100.00;152449.59;5006543;28;20795;-74
2023/12/21 01:08:52;;;;;;;1.20;0.80;;;;;;;4.23;100.00;152450.88;5007635;28;20460;-75
2023/12/21 01:11:18;;;;;;;1.20;0.60;;;;;;;4.25;100.00;152454.72;4988071;28;20958;-74
2023/12/21 01:13:45;;;;;;;1.20;0.57;;;;;;;4.27;100.00;152461.16;4979508;28;20819;-74
2023/12/21 01:16:13;;;;;;;1.30;0.70;;;;;;;4.28;100.00;152462.47;4987157;28;20474;-74
2023/12/21 01:18:41;;;;;;;1.20;0.63;;;;;;;4.27;100.00;152459.88;5000025;28;20459;-75
2023/12/21 01:21:09;;;;;;;1.60;0.60;;;;;;;4.28;100.00;152462.47;4999823;28;20863;-74
2023/12/21 01:23:35;;;;;;;1.30;0.80;;;;;;;4.28;100.00;152462.47;5002087;28;20453;-74
2023/12/21 01:26:02;;;;;;;0.90;0.57;;;;;;;4.29;100.00;152465.00;4991589;28;20481;-74
2023/12/21 01:28:29;;;;;;;1.47;1.00;;;;;;;4.28;100.00;152462.47;5012788;28;20989;-74
2023/12/21 01:30:55;;;;;;;1.57;0.60;;;;;;;4.30;100.00;152467.59;5009873;28;20453;-74
2023/12/21 01:33:22;;;;;;;1.67;0.80;;;;;;;4.29;100.00;152465.00;5011652;28;20499;-75
2023/12/21 01:35:48;;;;;;;1.77;0.90;;;;;;;4.29;100.00;152465.00;5012746;28;20464;-74
2023/12/21 01:38:16;;;;;;;1.00;0.67;;;;;;;4.29;100.00;152466.31;5015548;28;20439;-75
2023/12/21 01:40:43;;;;;;;1.30;0.60;;;;;;;4.29;100.00;152465.00;5006094;28;20963;-75
2023/12/21 01:43:09;;;;;;;1.07;0.70;;;;;;;4.30;100.00;152467.59;4986091;28;20583;-74
2023/12/21 01:45:36;;;;;;;1.70;0.70;;;;;;;4.31;100.00;152470.19;5010136;28;20452;-74
2023/12/21 01:48:02;;;;;;;1.13;0.50;;;;;;;4.33;100.00;152475.34;4995300;28;20452;-75
2023/12/21 01:50:29;;;;;;;1.60;0.60;;;;;;;4.36;100.00;152483.06;5001392;28;20469;-74
2023/12/21 01:52:56;;;;;;;1.10;0.60;;;;;;;4.37;100.00;152485.63;4983907;28;20816;-75
2023/12/21 01:55:23;;;;;;;1.73;0.50;;;;;;;4.38;100.00;152488.22;5009849;28;20452;-74
2023/12/21 01:57:50;;;;;;;1.23;0.77;;;;;;;4.38;100.00;152486.91;5012681;28;20799;-74
2023/12/21 02:00:17;;;;;;;1.53;0.60;;;;;;;4.38;100.00;152486.91;4986934;28;20477;-74
2023/12/21 02:02:44;;;;;;;0.97;0.60;;;;;;;4.39;100.00;152489.50;4991527;28;20474;-74
2023/12/21 02:05:11;;;;;;;0.87;0.40;;;;;;;4.39;100.00;152490.81;4977204;28;20463;-74
2023/12/21 02:07:37;;;;;;;0.90;0.60;;;;;;;4.40;100.00;152493.34;4984973;28;20555;-74
2023/12/21 02:10:04;;;;;;;1.17;0.50;;;;;;;4.43;100.00;152499.78;5013839;28;20456;-74
2023/12/21 02:12:32;;;;;;;1.00;0.87;;;;;;;4.42;100.00;152498.50;5009613;28;20459;-74
2023/12/21 02:14:59;;;;;;;0.80;0.30;;;;;;;4.47;100.00;152510.13;5005595;28;20884;-74
2023/12/21 02:17:27;;;;;;;1.10;0.50;;;;;;;4.47;100.00;152510.13;5005996;28;20820;-74
2023/12/21 02:19:53;;;;;;;0.80;0.50;;;;;;;4.46;100.00;152508.81;5007597;28;20494;-74
2023/12/21 02:22:21;;;;;;;0.97;0.50;;;;;;;4.46;100.00;152508.81;5012997;28;20541;-74
2023/12/21 02:24:49;;;;;;;1.20;0.40;;;;;;;4.47;100.00;152510.13;4999789;28;20543;-74
2023/12/21 02:27:16;;;;;;;1.07;0.50;;;;;;;4.46;100.00;152508.81;4978158;28;20980;-74
2023/12/21 02:29:42;;;;;;;1.20;0.60;;;;;;;4.49;100.00;152516.56;4980106;28;20442;-74
2023/12/21 02:32:09;;;;;;;0.93;0.50;;;;;;;4.52;100.00;152524.28;4982883;28;20459;-74
2023/12/21 02:34:35;;;;;;;0.90;0.50;;;;;;;4.52;100.00;152524.28;5002005;28;20539;-74
2023/12/21 02:37:02;;;;;;;0.80;0.50;;;;;;;4.52;100.00;152524.28;5009147;28;20934;-74
2023/12/21 02:39:28;;;;;;;1.20;0.57;;;;;;;4.52;100.00;152524.28;5006596;28;20432;-74
2023/12/21 02:41:56;;;;;;;1.57;0.40;;;;;;;4.55;100.00;152530.72;5009622;28;20467;-74
2023/12/21 02:44:23;;;;;;;1.10;0.80;;;;;;;4.54;100.00;152529.44;5011940;28;20444;-75
2023/12/21 02:46:49;;;;;;;1.10;0.60;;;;;;;4.54;100.00;152528.13;4992441;28;20885;-75
2023/12/21 02:49:16;;;;;;;0.80;0.40;;;;;;;4.54;100.00;152528.13;4993029;28;20519;-75
2023/12/21 02:52:14;;;;;;;1.00;0.43;;;;;;;4.57;100.00;152537.19;5010622;28;20937;-83
2023/12/21 02:54:40;;;;;;;0.90;0.50;;;;;;;4.56;100.00;152533.28;4940260;28;20468;-83
2023/12/21 02:57:08;;;;;;;1.57;0.40;;;;;;;4.57;100.00;152537.19;5003766;28;20456;-82
2023/12/21 02:59:35;;;;;;;1.10;0.50;;;;;;;4.60;100.00;152544.91;4997142;28;20444;-82
2023/12/21 03:02:01;;;;;;;1.13;0.57;;;;;;;4.59;100.00;152542.31;5001650;28;20452;-83
2023/12/21 03:04:28;;;;;;;1.07;0.40;;;;;;;4.58;100.00;152538.47;5007759;28;20499;-82
2023/12/21 03:06:54;;;;;;;1.10;0.40;;;;;;;4.58;100.00;152538.47;5018568;28;20487;-81
2023/12/21 03:09:21;;;;;;;0.80;0.40;;;;;;;4.64;100.00;152553.91;5017460;28;20440;-82
2023/12/21 03:11:47;;;;;;;1.17;0.53;;;;;;;4.68;100.00;152564.22;5021104;28;20518;-81
2023/12/21 03:14:15;;;;;;;0.87;0.53;;;;;;;4.65;100.00;152557.78;4993125;28;20907;-73
2023/12/21 03:16:42;;;;;;;0.90;0.60;;;;;;;4.67;100.00;152562.94;4976497;28;20449;-74
2023/12/21 03:19:08;;;;;;;0.70;0.40;;;;;;;4.68;100.00;152565.53;5008647;28;20902;-73
2023/12/21 03:21:36;;;;;;;1.00;0.50;;;;;;;4.70;100.00;152570.66;5010776;28;20512;-73
2023/12/21 03:24:03;;;;;;;0.90;0.40;;;;;;;4.70;100.00;152570.66;5007223;28;20459;-73
2023/12/21 03:26:31;;;;;;;0.80;0.40;;;;;;;4.72;100.00;152574.50;5014239;28;20455;-74
2023/12/21 03:28:58;;;;;;;1.27;0.40;;;;;;;4.73;100.00;152578.41;4987672;28;20451;-74
2023/12/21 03:31:26;;;;;;;0.80;0.40;;;;;;;4.72;100.00;152575.81;5005976;28;20813;-73
2023/12/21 03:33:52;;;;;;;0.80;0.37;;;;;;;4.72;100.00;152575.81;5006617;28;21017;-74
2023/12/21 03:36:19;;;;;;;1.90;0.40;;;;;;;4.75;100.00;152583.56;5011357;28;20488;-74
2023/12/21 03:38:45;;;;;;;0.87;0.40;;;;;;;4.73;100.00;152577.13;5014106;28;20459;-74
2023/12/21 03:41:12;;;;;;;0.70;0.40;;;;;;;4.74;100.00;152580.97;5007611;28;20483;-74
2023/12/21 03:43:38;;;;;;;0.90;0.50;;;;;;;4.74;100.00;152579.66;5012468;28;20460;-74
2023/12/21 03:46:08;;;;;;;0.90;0.50;;;;;;;4.74;100.00;152580.97;5015632;28;20460;-74
2023/12/21 03:48:36;;;;;;;2.90;0.40;;;;;;;4.76;100.00;152584.84;4996482;28;20458;-74
2023/12/21 03:51:03;;;;;;;0.80;0.40;;;;;;;4.77;100.00;152587.41;5015530;28;20452;-74
2023/12/21 03:53:30;;;;;;;0.80;0.40;;;;;;;4.78;100.00;152590.00;4990389;28;20467;-74
2023/12/21 03:55:56;;;;;;;1.00;0.40;;;;;;;4.82;100.00;152600.28;4999963;28;20851;-73
2023/12/21 03:58:23;;;;;;;0.80;0.50;;;;;;;4.86;100.00;152610.63;5005288;28;20464;-73
2023/12/21 04:00:49;;;;;;;0.80;0.50;;;;;;;4.83;100.00;152602.88;5009441;28;20491;-74
2023/12/21 04:03:16;;;;;;;0.83;0.37;;;;;;;4.80;100.00;152596.44;5010915;28;20473;-74
2023/12/21 04:05:44;;;;;;;1.27;0.60;;;;;;;4.82;100.00;152601.56;4980746;28;20502;-73
2023/12/21 04:08:11;;;;;;;1.00;0.50;;;;;;;4.85;100.00;152609.31;4988994;28;20460;-74
2023/12/21 04:10:37;;;;;;;0.97;0.40;;;;;;;4.85;100.00;152608.03;5012268;28;20452;-74
2023/12/21 04:13:04;;;;;;;0.80;0.40;;;;;;;4.89;100.00;152619.66;5006099;28;20464;-74
2023/12/21 04:15:30;;;;;;;0.80;0.30;;;;;;;4.87;100.00;152614.47;4988193;28;20452;-75
2023/12/21 04:17:57;;;;;;;1.00;0.40;;;;;;;4.88;100.00;152615.75;4981847;28;20522;-74
2023/12/21 04:20:24;;;;;;;0.70;0.30;;;;;;;4.88;100.00;152617.06;5009022;28;20487;-74
2023/12/21 04:22:52;;;;;;;0.70;0.30;;;;;;;4.92;100.00;152627.34;5004979;28;20457;-74
2023/12/21 04:25:18;;;;;;;0.70;0.30;;;;;;;4.94;100.00;152631.22;5008813;28;20456;-75
2023/12/21 04:27:45;;;;;;;0.70;0.30;;;;;;;4.94;100.00;152631.22;5009718;28;20460;-74
2023/12/21 04:30:12;;;;;;;1.63;0.40;;;;;;;4.97;100.00;152637.69;5006096;28;20459;-73
2023/12/21 04:32:39;;;;;;;0.70;0.40;;;;;;;4.96;100.00;152635.06;5011747;28;20460;-73
2023/12/21 04:35:09;;;;;;;0.90;0.40;;;;;;;4.96;100.00;152635.06;5002486;28;20449;-73
2023/12/21 04:37:35;;;;;;;0.83;0.40;;;;;;;4.97;100.00;152637.69;5003086;28;20508;-73
2023/12/21 04:40:04;;;;;;;0.70;0.30;;;;;;;4.95;100.00;152632.53;5014298;28;20466;-73
2023/12/21 04:42:30;;;;;;;0.83;0.43;;;;;;;4.96;100.00;152635.06;5008365;28;20512;-75
2023/12/21 04:44:57;;;;;;;0.70;0.30;;;;;;;4.92;100.00;152627.34;5005721;28;20444;-75
2023/12/21 04:47:24;;;;;;;0.90;0.40;;;;;;;4.93;100.00;152629.94;5004765;28;20449;-73
2023/12/21 04:49:50;;;;;;;1.20;0.30;;;;;;;4.92;100.00;152627.34;5004319;28;20441;-73
2023/12/21 04:52:17;;;;;;;1.20;0.50;;;;;;;4.91;100.00;152624.78;4985347;28;20437;-73
2023/12/21 04:54:44;;;;;;;0.70;0.33;;;;;;;4.97;100.00;152637.69;4993026;28;20979;-73
2023/12/21 04:57:12;;;;;;;0.80;0.30;;;;;;;4.96;100.00;152636.38;4999693;28;20459;-75
2023/12/21 04:59:40;;;;;;;3.00;0.50;;;;;;;4.95;100.00;152632.53;4980378;28;20778;-74
2023/12/21 05:02:07;;;;;;;0.70;0.30;;;;;;;4.93;100.00;152629.94;4980005;28;20469;-74
2023/12/21 05:04:33;;;;;;;0.80;0.50;;;;;;;4.95;100.00;152633.78;5005835;28;20476;-75
2023/12/21 05:07:00;;;;;;;0.70;0.30;;;;;;;4.97;100.00;152637.69;4979326;28;21074;-74
2023/12/21 05:09:26;;;;;;;0.70;0.30;;;;;;;4.99;100.00;152642.81;5010213;28;20522;-75
2023/12/21 05:11:53;;;;;;;0.70;0.30;;;;;;;4.99;100.00;152642.81;5001394;28;20511;-75
2023/12/21 05:14:21;;;;;;;0.70;0.30;;;;;;;4.99;100.00;152644.13;4977856;28;21020;-74
2023/12/21 05:16:48;;;;;;;0.80;0.40;;;;;;;4.98;100.00;152641.53;5003569;28;20944;-73
2023/12/21 05:19:14;;;;;;;1.20;0.63;;;;;;;5.01;100.00;152647.97;5007661;28;20461;-73
2023/12/21 05:21:41;;;;;;;1.63;0.43;;;;;;;5.00;100.00;152646.72;5005087;28;20544;-73
2023/12/21 05:24:07;;;;;;;0.90;0.33;;;;;;;5.03;100.00;152653.16;4984143;28;21043;-73
2023/12/21 05:26:34;;;;;;;0.80;0.40;;;;;;;5.02;100.00;152651.84;5006094;28;20461;-74
2023/12/21 05:29:02;;;;;;;0.77;0.30;;;;;;;5.03;100.00;152654.41;5009663;28;20460;-73
2023/12/21 05:31:30;;;;;;;0.80;0.50;;;;;;;5.04;100.00;152655.69;5002406;28;20504;-73
2023/12/21 05:33:56;;;;;;;0.73;0.33;;;;;;;5.05;100.00;152658.31;4980221;28;20479;-73
2023/12/21 05:36:24;;;;;;;0.80;0.30;;;;;;;5.04;100.00;152655.69;5007107;28;20464;-74
2023/12/21 05:38:51;;;;;;;0.70;0.30;;;;;;;5.06;100.00;152662.16;5004851;28;20532;-75
2023/12/21 05:41:18;;;;;;;0.70;0.30;;;;;;;5.07;100.00;152664.75;4970131;28;20480;-74
2023/12/21 05:43:44;;;;;;;0.70;0.30;;;;;;;5.09;100.00;152668.59;4998137;28;20457;-74
2023/12/21 05:46:11;;;;;;;0.70;0.30;;;;;;;5.07;100.00;152664.75;5003371;28;20456;-74
2023/12/21 05:48:39;;;;;;;0.90;0.40;;;;;;;5.07;100.00;152663.44;4998016;28;20945;-74
2023/12/21 05:51:06;;;;;;;0.70;0.30;;;;;;;5.07;100.00;152663.44;4970430;28;20452;-74
2023/12/21 05:53:32;;;;;;;1.57;0.60;;;;;;;5.11;100.00;152673.78;5017045;28;20453;-75
2023/12/21 05:55:59;;;;;;;0.80;0.37;;;;;;;5.11;100.00;152673.78;4985876;28;20459;-74
2023/12/21 05:58:26;;;;;;;0.70;0.30;;;;;;;5.15;100.00;152684.06;4998520;28;20457;-74
2023/12/21 06:00:54;;;;;;;1.03;0.30;;;;;;;5.15;100.00;152684.06;4983195;28;20483;-74
2023/12/21 06:03:20;;;;;;;1.00;0.50;;;;;;;5.14;100.00;152681.47;5011297;28;20500;-74
2023/12/21 06:05:49;;;;;;;0.90;0.53;;;;;;;5.14;100.00;152681.47;5005630;28;20471;-74
2023/12/21 06:08:16;;;;;;;0.83;0.40;;;;;;;5.14;100.00;152681.47;4995572;28;20449;-74
2023/12/21 06:10:42;;;;;;;0.83;0.40;;;;;;;5.15;100.00;152684.06;4994781;28;20557;-74
2023/12/21 06:13:09;;;;;;;0.90;0.50;;;;;;;5.15;100.00;152684.06;4987605;28;20465;-74
2023/12/21 06:15:35;;;;;;;1.03;0.70;;;;;;;5.15;100.00;152684.06;4999239;28;20460;-74
2023/12/21 06:18:02;;;;;;;0.80;0.40;;;;;;;5.15;100.00;152685.38;5001018;28;20463;-74
2023/12/21 06:20:30;;;;;;;0.70;0.20;;;;;;;5.15;100.00;152684.06;5005157;28;20827;-74
2023/12/21 06:22:58;;;;;;;0.90;0.50;;;;;;;5.18;100.00;152691.81;5003321;28;20534;-74
2023/12/21 06:25:25;;;;;;;0.80;0.40;;;;;;;5.20;100.00;152696.94;5001371;28;20457;-74
2023/12/21 06:27:51;;;;;;;0.70;0.30;;;;;;;5.20;100.00;152696.94;5000093;28;20467;-74
2023/12/21 06:30:18;;;;;;;0.90;0.43;;;;;;;5.17;100.00;152690.50;4999743;28;20464;-74
2023/12/21 06:32:44;;;;;;;0.77;0.40;;;;;;;5.24;100.00;152707.28;4986950;28;20551;-74
2023/12/21 06:35:11;;;;;;;0.90;0.40;;;;;;;5.23;100.00;152706.00;4984229;28;20459;-74
2023/12/21 06:37:38;;;;;;;0.90;0.57;;;;;;;5.21;100.00;152700.84;4996021;28;20456;-74
2023/12/21 06:40:08;;;;;;;1.30;0.70;;;;;;;5.22;100.00;152702.09;4990773;28;20530;-75
2023/12/21 06:42:35;;;;;;;1.40;0.50;;;;;;;5.23;100.00;152704.69;4981293;28;20846;-74
2023/12/21 06:45:02;;;;;;;1.10;0.40;;;;;;;5.24;100.00;152707.28;4989559;28;20463;-74
2023/12/21 06:47:28;;;;;;;1.63;0.40;;;;;;;5.22;100.00;152702.09;4984541;28;20440;-74
2023/12/21 06:49:57;;;;;;;0.80;0.40;;;;;;;5.24;100.00;152707.28;5002455;28;20471;-74
2023/12/21 06:52:23;;;;;;;1.00;0.43;;;;;;;5.25;100.00;152709.84;4991898;28;20449;-74
2023/12/21 06:54:50;;;;;;;0.70;0.30;;;;;;;5.27;100.00;152715.03;5000606;28;20463;-74
2023/12/21 06:57:18;;;;;;;0.70;0.30;;;;;;;5.26;100.00;152712.44;4975953;28;20468;-74
2023/12/21 06:59:44;;;;;;;0.97;0.60;;;;;;;5.29;100.00;152721.47;5003253;28;21056;-74
2023/12/21 07:02:11;;;;;;;0.90;0.40;;;;;;;5.31;100.00;152725.31;4977861;28;20465;-73
2023/12/21 07:04:38;;;;;;;1.67;0.50;;;;;;;5.30;100.00;152722.72;4987906;28;20538;-73
2023/12/21 07:07:05;;;;;;;1.00;0.50;;;;;;;5.29;100.00;152721.47;4988113;28;20468;-74
2023/12/21 07:09:31;;;;;;;1.33;0.40;;;;;;;5.31;100.00;152725.31;4980731;28;20552;-73
2023/12/21 07:12:00;;;;;;;0.90;0.40;;;;;;;5.32;100.00;152727.91;4966130;28;20460;-74
2023/12/21 07:14:28;;;;;;;1.17;0.47;;;;;;;5.34;100.00;152733.06;4986475;28;20828;-73
2023/12/21 07:16:55;;;;;;;1.03;0.50;;;;;;;5.36;100.00;152738.22;4984218;28;20522;-73
2023/12/21 07:19:21;;;;;;;0.80;0.43;;;;;;;5.39;100.00;152747.25;4978503;28;20972;-73
2023/12/21 07:21:48;;;;;;;1.67;0.60;;;;;;;5.40;100.00;152748.56;4967097;28;20500;-73
2023/12/21 07:24:14;;;;;;;0.80;0.50;;;;;;;5.38;100.00;152744.66;4964242;28;20524;-75
2023/12/21 07:26:41;;;;;;;0.90;0.50;;;;;;;5.41;100.00;152751.09;4977463;28;20464;-74
2023/12/21 07:29:07;;;;;;;0.80;0.40;;;;;;;5.43;100.00;152756.25;4976550;28;20971;-74
2023/12/21 07:31:36;;;;;;;1.10;0.60;;;;;;;5.44;100.00;152758.84;4986718;28;20967;-74
2023/12/21 07:34:04;;;;;;;1.00;0.53;;;;;;;5.46;100.00;152764.00;4984457;28;20492;-75
2023/12/21 07:36:31;;;;;;;0.80;0.40;;;;;;;5.44;100.00;152758.84;4980942;28;20465;-74
2023/12/21 07:38:57;;;;;;;0.80;0.40;;;;;;;5.46;100.00;152764.00;4981411;28;20454;-74
2023/12/21 07:41:25;;;;;;;0.80;0.50;;;;;;;5.49;100.00;152773.03;4980302;28;20457;-74
2023/12/21 07:43:51;;;;;;;0.90;0.50;;;;;;;5.47;100.00;152767.88;4981312;28;20453;-74
2023/12/21 07:46:18;;;;;;;0.80;0.50;;;;;;;5.48;100.00;152769.19;4981769;28;21048;-74
2023/12/21 07:48:46;;;;;;;1.07;0.60;;;;;;;5.50;100.00;152775.63;4982585;28;20446;-74
2023/12/21 07:51:12;;;;;;;1.03;0.60;;;;;;;5.52;100.00;152780.78;4946498;28;20983;-74
2023/12/21 07:53:43;;;;;;;0.90;0.50;;;;;;;5.51;100.00;152776.88;4980266;28;20519;-74
2023/12/21 07:56:16;;;;;;;1.10;0.53;;;;;;;5.53;100.00;152783.31;4980606;28;20465;-75
2023/12/21 07:58:43;;;;;;;0.93;0.60;;;;;;;5.54;100.00;152784.63;4969398;28;20491;-74
2023/12/21 08:01:10;;;;;;;2.70;0.60;;;;;;;5.54;100.00;152784.63;4965970;28;20526;-74
2023/12/21 08:03:37;;;;;;;1.57;0.40;;;;;;;5.59;100.00;152797.50;4964123;28;20915;-74
2023/12/21 08:06:06;;;;;;;0.97;0.60;;;;;;;5.60;100.00;152800.09;4980376;28;20449;-74
2023/12/21 08:08:33;;;;;;;0.70;0.40;;;;;;;5.59;100.00;152797.50;4960705;28;20948;-74
2023/12/21 08:11:00;;;;;;;0.90;0.50;;;;;;;5.62;100.00;152803.97;4977913;28;21288;-74
2023/12/21 08:13:27;;;;;;;1.00;0.50;;;;;;;5.61;100.00;152801.41;4981588;28;20445;-74
2023/12/21 08:15:53;;;;;;;1.50;0.50;;;;;;;5.63;100.00;152806.56;4980934;28;20462;-74
2023/12/21 08:18:20;;;;;;;2.80;0.60;;;;;;;5.67;100.00;152818.16;4982017;28;20814;-74
2023/12/21 08:20:47;;;;;;;1.27;0.37;;;;;;;5.69;100.00;152823.34;4964324;28;20806;-74
2023/12/21 08:23:19;;;;;;;0.90;0.60;;;;;;;5.71;100.00;152828.47;4979225;28;20481;-74
2023/12/21 08:25:45;;;;;;;1.10;0.50;;;;;;;5.72;100.00;152829.78;4978913;28;20453;-74
2023/12/21 08:28:13;;;;;;;0.80;0.50;;;;;;;5.70;100.00;152825.88;4980190;28;20460;-73
2023/12/21 08:30:41;;;;;;;0.80;0.50;;;;;;;5.72;100.00;152831.03;4979875;28;21372;-82
2023/12/21 08:33:08;;;;;;;0.80;0.40;;;;;;;5.75;100.00;152838.78;4980631;28;20453;-82
2023/12/21 08:35:34;;;;;;;1.63;0.50;;;;;;;5.78;100.00;152845.22;4981860;28;20457;-82
2023/12/21 08:38:01;;;;;;;1.07;0.47;;;;;;;5.79;100.00;152847.81;4999110;28;20852;-82
2023/12/21 08:40:28;;;;;;;1.17;0.60;;;;;;;5.77;100.00;152842.69;4988102;28;20460;-82
2023/12/21 08:42:56;;;;;;;0.80;0.30;;;;;;;5.77;100.00;152842.69;4992645;28;20477;-82
2023/12/21 08:45:23;;;;;;;1.17;0.50;;;;;;;5.78;100.00;152845.22;4995037;28;20448;-81
2023/12/21 08:47:49;;;;;;;0.80;0.40;;;;;;;5.77;100.00;152843.94;4977430;28;20465;-82
2023/12/21 08:50:17;;;;;;;0.90;0.40;;;;;;;5.78;100.00;152846.53;4987344;28;20464;-82
2023/12/21 08:52:48;;;;;;;0.80;0.50;;;;;;;5.80;100.00;152850.44;4977529;28;20445;-82
2023/12/21 08:55:15;;;;;;;0.80;0.40;;;;;;;5.79;100.00;152849.13;4990837;28;20457;-82
2023/12/21 08:57:43;;;;;;;0.80;0.37;;;;;;;5.81;100.00;152854.28;4986671;28;20484;-82
2023/12/21 09:00:12;;;;;;;0.90;0.40;;;;;;;5.85;100.00;152863.38;4985582;28;20794;-82
2023/12/21 09:02:39;;;;;;;1.07;0.33;;;;;;;5.84;100.00;152862.00;4971091;28;20511;-82
2023/12/21 09:05:12;;;;;;;1.00;0.40;;;;;;;5.83;100.00;152858.13;4999536;28;20452;-82
2023/12/21 09:07:38;;;;;;;1.37;0.40;;;;;;;5.82;100.00;152856.88;4982176;28;20928;-82
2023/12/21 09:10:08;;;;;;;1.20;0.60;;;;;;;5.82;100.00;152855.56;5000136;28;20475;-81
2023/12/21 09:12:35;;;;;;;2.30;0.60;;;;;;;5.85;100.00;152864.63;4996477;28;20988;-82
2023/12/21 09:15:04;;;;;;;0.80;0.30;;;;;;;5.87;100.00;152868.50;4996622;28;20820;-82
2023/12/21 09:17:32;;;;;;;1.00;0.43;;;;;;;5.87;100.00;152869.81;4995961;28;20458;-82
2023/12/21 09:20:01;;;;;;;1.00;0.30;;;;;;;5.87;100.00;152869.81;4999173;28;20457;-82
2023/12/21 09:22:27;;;;;;;0.70;0.40;;;;;;;5.88;100.00;152872.34;4996261;28;20972;-81
2023/12/21 09:24:55;;;;;;;1.17;0.60;;;;;;;5.92;100.00;152881.41;4982572;28;20472;-82
2023/12/21 09:27:23;;;;;;;0.80;0.40;;;;;;;5.90;100.00;152877.56;4999523;28;20448;-83
2023/12/21 09:29:50;;;;;;;0.77;0.30;;;;;;;5.97;100.00;152895.59;5000783;28;20450;-82
2023/12/21 09:32:19;;;;;;;0.80;0.40;;;;;;;5.97;100.00;152894.28;4983275;28;20588;-82
2023/12/21 09:34:48;;;;;;;1.07;0.60;;;;;;;5.99;100.00;152900.75;4996295;28;20573;-82
2023/12/21 09:37:15;;;;;;;1.47;0.50;;;;;;;6.00;100.00;152903.34;5003172;28;20484;-82
2023/12/21 09:39:41;;;;;;;1.00;0.30;;;;;;;6.02;100.00;152907.19;5010646;28;20547;-82
2023/12/21 09:42:11;;;;;;;0.90;0.50;;;;;;;6.04;100.00;152913.63;4992594;28;20519;-82
2023/12/21 09:44:38;;;;;;;0.70;0.30;;;;;;;6.06;100.00;152918.78;4987586;28;20445;-82
2023/12/21 09:47:05;;;;;;;0.80;0.40;;;;;;;6.05;100.00;152914.94;5000722;28;20514;-82
2023/12/21 09:49:36;;;;;;;0.73;0.30;;;;;;;6.08;100.00;152923.97;4998806;28;20998;-82
2023/12/21 09:52:07;;;;;;;0.70;0.30;;;;;;;6.09;100.00;152926.53;4999370;28;20448;-82
2023/12/21 09:54:34;;;;;;;0.80;0.40;;;;;;;6.12;100.00;152934.28;4999394;28;20445;-82
2023/12/21 09:57:00;;;;;;;1.57;0.50;;;;;;;6.16;100.00;152943.31;4995844;28;20458;-82
2023/12/21 09:59:30;;;;;;;0.80;0.30;;;;;;;6.17;100.00;152944.63;4996892;28;21006;-81
2023/12/21 10:01:57;;;;;;;0.80;0.40;;;;;;;6.19;100.00;152949.78;4994788;28;20903;-82
2023/12/21 10:04:23;;;;;;;0.70;0.40;;;;;;;6.23;100.00;152960.06;4996611;28;21031;-82
2023/12/21 10:06:51;;;;;;;0.97;0.37;;;;;;;6.26;100.00;152967.81;4997584;28;20464;-81
2023/12/21 10:09:18;;;;;;;0.90;0.50;;;;;;;6.28;100.00;152974.28;4997515;28;20452;-82
2023/12/21 10:11:45;;;;;;;1.20;0.43;;;;;;;6.30;100.00;152979.41;4996146;28;20520;-82
2023/12/21 10:14:16;;;;;;;1.20;0.50;;;;;;;6.31;100.00;152980.72;4985148;28;20441;-81
2023/12/21 10:16:42;;;;;;;0.80;0.30;;;;;;;6.31;100.00;152982.03;4997090;28;20824;-82
2023/12/21 10:19:11;;;;;;;0.90;0.40;;;;;;;6.35;100.00;152991.06;4982844;28;20535;-81
2023/12/21 10:21:39;;;;;;;0.80;0.40;;;;;;;6.37;100.00;152996.22;4994497;28;20735;-81
2023/12/21 10:24:07;;;;;;;0.80;0.50;;;;;;;6.39;100.00;153001.38;5007032;28;20483;-82
2023/12/21 10:26:43;;;;;;;0.90;0.40;;;;;;;6.38;100.00;153000.06;5007305;28;20798;-81
2023/12/21 10:29:09;;;;;;;1.03;0.40;;;;;;;6.41;100.00;153006.53;4995535;28;20886;-82
2023/12/21 10:31:37;;;;;;;2.20;0.57;;;;;;;6.41;100.00;153007.81;4980444;28;20468;-82
2023/12/21 10:34:09;;;;;;;0.80;0.40;;;;;;;6.43;100.00;153011.72;4995945;28;20449;-82
2023/12/21 10:36:39;;;;;;;0.80;0.30;;;;;;;6.44;100.00;153015.56;4992329;28;21063;-82
2023/12/21 10:39:05;;;;;;;0.80;0.40;;;;;;;6.48;100.00;153024.63;4980084;28;20455;-81
2023/12/21 10:41:33;;;;;;;0.70;0.30;;;;;;;6.50;100.00;153029.75;4997363;28;21030;-82
2023/12/21 10:44:00;;;;;;;0.80;0.40;;;;;;;6.51;100.00;153033.63;5000972;28;20475;-73
2023/12/21 10:46:30;;;;;;;0.73;0.33;;;;;;;6.55;100.00;153042.66;4994477;28;20976;-73
2023/12/21 10:48:59;;;;;;;1.17;0.40;;;;;;;6.56;100.00;153046.56;4994851;28;21130;-73
2023/12/21 10:51:27;;;;;;;0.70;0.30;;;;;;;6.55;100.00;153042.66;4997567;28;20972;-73
2023/12/21 10:53:54;;;;;;;2.10;0.47;;;;;;;6.57;100.00;153047.81;4994472;28;20439;-73
2023/12/21 10:56:22;;;;;;;0.80;0.40;;;;;;;6.60;100.00;153055.56;4991549;28;21014;-73
2023/12/21 10:58:53;;;;;;;0.77;0.40;;;;;;;6.57;100.00;153047.81;4986793;28;20467;-73
2023/12/21 11:01:20;;;;;;;0.70;0.30;;;;;;;6.59;100.00;153054.28;4997684;28;20463;-73
2023/12/21 11:03:48;;;;;;;0.80;0.30;;;;;;;6.62;100.00;153060.72;4997181;28;20479;-73
2023/12/21 11:06:17;;;;;;;0.80;0.50;;;;;;;6.63;100.00;153063.31;5000400;28;20455;-73
2023/12/21 11:08:44;;;;;;;0.90;0.47;;;;;;;6.63;100.00;153063.31;4998409;28;20583;-73
2023/12/21 11:11:12;;;;;;;1.00;0.53;;;;;;;6.64;100.00;153067.22;5000453;28;20461;-73
2023/12/21 11:13:40;;;;;;;1.00;0.40;;;;;;;6.62;100.00;153060.72;4999430;28;20516;-73
2023/12/21 11:16:10;;;;;;;0.83;0.37;;;;;;;6.65;100.00;153069.78;4994014;28;20453;-73
2023/12/21 11:18:37;;;;;;;5.63;0.80;;;;;;;6.68;100.00;153076.22;4999329;28;20829;-73
2023/12/21 11:21:04;;;;;;;1.60;0.60;;;;;;;6.69;100.00;153080.13;4998870;28;20461;-73
2023/12/21 11:23:32;;;;;;;1.00;0.50;;;;;;;6.70;100.00;153081.38;5000659;28;20796;-73